sensor_id;sensor_type;location;lat;lon;timestamp;P1;durP1;ratioP1;P2;durP2;ratioP2
50128;SDS011;36026;45.478;9.224;2023-07-31T00:02:47;12.48;;;9.10;;
50128;SDS011;36026;45.478;9.224;2023-07-31T00:05:49;14.27;;;10.30;;
50128;SDS011;36026;45.478;9.224;2023-07-31T00:08:50;11.77;;;8.90;;
50128;SDS011;36026;45.478;9.224;2023-07-31T00:11:53;13.13;;;9.70;;
50128;SDS011;36026;45.478;9.224;2023-07-31T00:14:55;13.60;;;10.95;;
50128;SDS011;36026;45.478;9.224;2023-07-31T00:17:56;13.32;;;11.93;;
50128;SDS011;36026;45.478;9.224;2023-07-31T00:20:57;13.20;;;10.13;;
50128;SDS011;36026;45.478;9.224;2023-07-31T00:23:59;13.43;;;11.98;;
50128;SDS011;36026;45.478;9.224;2023-07-31T00:27:02;12.32;;;11.05;;
50128;SDS011;36026;45.478;9.224;2023-07-31T00:30:03;14.52;;;12.35;;
50128;SDS011;36026;45.478;9.224;2023-07-31T00:33:05;19.60;;;13.38;;
50128;SDS011;36026;45.478;9.224;2023-07-31T00:36:06;15.23;;;13.45;;
50128;SDS011;36026;45.478;9.224;2023-07-31T00:39:08;15.40;;;11.88;;
50128;SDS011;36026;45.478;9.224;2023-07-31T00:42:11;15.45;;;11.70;;
50128;SDS011;36026;45.478;9.224;2023-07-31T00:45:12;15.70;;;12.50;;
50128;SDS011;36026;45.478;9.224;2023-07-31T00:48:13;14.75;;;11.52;;
50128;SDS011;36026;45.478;9.224;2023-07-31T00:51:15;17.27;;;11.85;;
50128;SDS011;36026;45.478;9.224;2023-07-31T00:54:16;14.10;;;10.90;;
50128;SDS011;36026;45.478;9.224;2023-07-31T00:57:19;13.48;;;12.00;;
50128;SDS011;36026;45.478;9.224;2023-07-31T01:00:21;14.52;;;11.38;;
50128;SDS011;36026;45.478;9.224;2023-07-31T01:03:22;11.77;;;10.38;;
50128;SDS011;36026;45.478;9.224;2023-07-31T01:06:25;13.77;;;10.25;;
50128;SDS011;36026;45.478;9.224;2023-07-31T01:09:31;10.95;;;9.85;;
50128;SDS011;36026;45.478;9.224;2023-07-31T01:12:36;11.18;;;9.30;;
50128;SDS011;36026;45.478;9.224;2023-07-31T01:15:39;12.07;;;9.50;;
50128;SDS011;36026;45.478;9.224;2023-07-31T01:18:40;14.63;;;9.07;;
50128;SDS011;36026;45.478;9.224;2023-07-31T01:21:48;11.55;;;8.95;;
50128;SDS011;36026;45.478;9.224;2023-07-31T01:24:59;9.00;;;8.07;;
50128;SDS011;36026;45.478;9.224;2023-07-31T01:28:03;10.30;;;8.65;;
50128;SDS011;36026;45.478;9.224;2023-07-31T01:31:05;8.63;;;7.75;;
50128;SDS011;36026;45.478;9.224;2023-07-31T01:34:08;8.75;;;7.28;;
50128;SDS011;36026;45.478;9.224;2023-07-31T01:37:11;10.18;;;7.78;;
50128;SDS011;36026;45.478;9.224;2023-07-31T01:40:12;8.40;;;7.18;;
50128;SDS011;36026;45.478;9.224;2023-07-31T01:43:15;13.60;;;7.80;;
50128;SDS011;36026;45.478;9.224;2023-07-31T01:46:17;9.93;;;7.15;;
50128;SDS011;36026;45.478;9.224;2023-07-31T01:49:18;7.50;;;6.32;;
50128;SDS011;36026;45.478;9.224;2023-07-31T01:52:20;7.25;;;6.28;;
50128;SDS011;36026;45.478;9.224;2023-07-31T01:55:21;6.20;;;5.60;;
50128;SDS011;36026;45.478;9.224;2023-07-31T01:58:24;10.43;;;5.85;;
50128;SDS011;36026;45.478;9.224;2023-07-31T02:01:25;8.18;;;5.50;;
50128;SDS011;36026;45.478;9.224;2023-07-31T02:04:27;6.95;;;4.90;;
50128;SDS011;36026;45.478;9.224;2023-07-31T02:07:28;8.80;;;5.28;;
50128;SDS011;36026;45.478;9.224;2023-07-31T02:10:30;6.88;;;5.03;;
50128;SDS011;36026;45.478;9.224;2023-07-31T02:13:32;6.85;;;4.90;;
50128;SDS011;36026;45.478;9.224;2023-07-31T02:16:34;6.95;;;5.32;;
50128;SDS011;36026;45.478;9.224;2023-07-31T02:19:35;8.50;;;5.03;;
50128;SDS011;36026;45.478;9.224;2023-07-31T02:22:37;7.18;;;4.80;;
50128;SDS011;36026;45.478;9.224;2023-07-31T02:25:38;7.47;;;4.53;;
50128;SDS011;36026;45.478;9.224;2023-07-31T02:28:41;6.35;;;3.72;;
50128;SDS011;36026;45.478;9.224;2023-07-31T02:31:43;6.35;;;4.35;;
50128;SDS011;36026;45.478;9.224;2023-07-31T02:34:44;5.47;;;4.07;;
50128;SDS011;36026;45.478;9.224;2023-07-31T02:37:46;4.82;;;3.65;;
50128;SDS011;36026;45.478;9.224;2023-07-31T02:40:47;6.63;;;4.20;;
50128;SDS011;36026;45.478;9.224;2023-07-31T02:43:50;5.03;;;3.90;;
50128;SDS011;36026;45.478;9.224;2023-07-31T02:46:52;4.88;;;4.22;;
50128;SDS011;36026;45.478;9.224;2023-07-31T02:49:53;5.88;;;4.20;;
50128;SDS011;36026;45.478;9.224;2023-07-31T02:52:56;5.75;;;4.05;;
50128;SDS011;36026;45.478;9.224;2023-07-31T02:55:57;7.10;;;3.85;;
50128;SDS011;36026;45.478;9.224;2023-07-31T02:59:00;6.05;;;3.80;;
50128;SDS011;36026;45.478;9.224;2023-07-31T03:02:01;5.13;;;3.83;;
50128;SDS011;36026;45.478;9.224;2023-07-31T03:05:03;3.75;;;3.25;;
50128;SDS011;36026;45.478;9.224;2023-07-31T03:08:04;4.72;;;3.92;;
50128;SDS011;36026;45.478;9.224;2023-07-31T03:11:06;4.75;;;3.80;;
50128;SDS011;36026;45.478;9.224;2023-07-31T03:14:09;5.03;;;3.92;;
50128;SDS011;36026;45.478;9.224;2023-07-31T03:17:10;7.38;;;4.10;;
50128;SDS011;36026;45.478;9.224;2023-07-31T03:20:12;4.72;;;3.78;;
50128;SDS011;36026;45.478;9.224;2023-07-31T03:23:13;4.80;;;3.85;;
50128;SDS011;36026;45.478;9.224;2023-07-31T03:26:14;5.55;;;3.75;;
50128;SDS011;36026;45.478;9.224;2023-07-31T03:29:17;7.72;;;4.50;;
50128;SDS011;36026;45.478;9.224;2023-07-31T03:32:19;7.88;;;4.13;;
50128;SDS011;36026;45.478;9.224;2023-07-31T03:35:20;5.03;;;3.80;;
50128;SDS011;36026;45.478;9.224;2023-07-31T03:38:22;7.25;;;4.50;;
50128;SDS011;36026;45.478;9.224;2023-07-31T03:41:23;5.07;;;3.90;;
50128;SDS011;36026;45.478;9.224;2023-07-31T03:44:26;6.53;;;4.50;;
50128;SDS011;36026;45.478;9.224;2023-07-31T03:47:28;6.22;;;4.10;;
50128;SDS011;36026;45.478;9.224;2023-07-31T03:50:30;7.28;;;4.10;;
50128;SDS011;36026;45.478;9.224;2023-07-31T03:53:31;5.10;;;3.80;;
50128;SDS011;36026;45.478;9.224;2023-07-31T03:56:33;5.90;;;3.95;;
50128;SDS011;36026;45.478;9.224;2023-07-31T03:59:36;7.50;;;4.40;;
50128;SDS011;36026;45.478;9.224;2023-07-31T04:02:38;9.18;;;4.30;;
50128;SDS011;36026;45.478;9.224;2023-07-31T04:05:40;7.88;;;4.72;;
50128;SDS011;36026;45.478;9.224;2023-07-31T04:08:41;6.80;;;5.05;;
50128;SDS011;36026;45.478;9.224;2023-07-31T04:11:43;5.70;;;4.45;;
50128;SDS011;36026;45.478;9.224;2023-07-31T04:14:45;7.00;;;4.38;;
50128;SDS011;36026;45.478;9.224;2023-07-31T04:17:47;4.82;;;3.70;;
50128;SDS011;36026;45.478;9.224;2023-07-31T04:20:48;6.65;;;4.70;;
50128;SDS011;36026;45.478;9.224;2023-07-31T04:23:50;5.28;;;3.65;;
50128;SDS011;36026;45.478;9.224;2023-07-31T04:26:51;6.65;;;4.47;;
50128;SDS011;36026;45.478;9.224;2023-07-31T04:29:54;5.47;;;3.60;;
50128;SDS011;36026;45.478;9.224;2023-07-31T04:32:56;8.13;;;4.47;;
50128;SDS011;36026;45.478;9.224;2023-07-31T04:35:57;4.43;;;3.85;;
50128;SDS011;36026;45.478;9.224;2023-07-31T04:38:58;6.93;;;3.55;;
50128;SDS011;36026;45.478;9.224;2023-07-31T04:42:00;4.10;;;3.70;;
50128;SDS011;36026;45.478;9.224;2023-07-31T04:45:03;5.47;;;3.70;;
50128;SDS011;36026;45.478;9.224;2023-07-31T04:48:05;6.07;;;4.00;;
50128;SDS011;36026;45.478;9.224;2023-07-31T04:51:06;5.50;;;3.85;;
50128;SDS011;36026;45.478;9.224;2023-07-31T04:54:08;4.80;;;3.97;;
50128;SDS011;36026;45.478;9.224;2023-07-31T04:57:09;4.35;;;3.70;;
50128;SDS011;36026;45.478;9.224;2023-07-31T05:00:12;4.75;;;3.78;;
50128;SDS011;36026;45.478;9.224;2023-07-31T05:03:14;5.55;;;4.20;;
50128;SDS011;36026;45.478;9.224;2023-07-31T05:06:15;6.20;;;4.07;;
50128;SDS011;36026;45.478;9.224;2023-07-31T05:09:17;4.00;;;3.60;;
50128;SDS011;36026;45.478;9.224;2023-07-31T05:12:18;6.20;;;3.80;;
50128;SDS011;36026;45.478;9.224;2023-07-31T05:15:21;4.07;;;3.47;;
50128;SDS011;36026;45.478;9.224;2023-07-31T05:18:23;5.18;;;3.63;;
50128;SDS011;36026;45.478;9.224;2023-07-31T05:21:24;5.75;;;3.92;;
50128;SDS011;36026;45.478;9.224;2023-07-31T05:24:26;5.05;;;3.58;;
50128;SDS011;36026;45.478;9.224;2023-07-31T05:27:27;4.45;;;3.42;;
50128;SDS011;36026;45.478;9.224;2023-07-31T05:30:30;5.38;;;3.60;;
50128;SDS011;36026;45.478;9.224;2023-07-31T05:33:32;4.80;;;3.75;;
50128;SDS011;36026;45.478;9.224;2023-07-31T05:36:33;4.68;;;3.38;;
50128;SDS011;36026;45.478;9.224;2023-07-31T05:39:35;5.15;;;3.70;;
50128;SDS011;36026;45.478;9.224;2023-07-31T05:42:37;5.05;;;3.53;;
50128;SDS011;36026;45.478;9.224;2023-07-31T05:45:42;6.63;;;3.50;;
50128;SDS011;36026;45.478;9.224;2023-07-31T05:48:43;10.05;;;4.50;;
50128;SDS011;36026;45.478;9.224;2023-07-31T05:51:45;5.00;;;3.65;;
50128;SDS011;36026;45.478;9.224;2023-07-31T05:54:46;8.88;;;3.90;;
50128;SDS011;36026;45.478;9.224;2023-07-31T05:57:48;8.93;;;3.70;;
50128;SDS011;36026;45.478;9.224;2023-07-31T06:00:50;3.88;;;3.17;;
50128;SDS011;36026;45.478;9.224;2023-07-31T06:03:52;3.95;;;3.33;;
50128;SDS011;36026;45.478;9.224;2023-07-31T06:06:53;5.97;;;3.75;;
50128;SDS011;36026;45.478;9.224;2023-07-31T06:09:55;4.88;;;3.50;;
50128;SDS011;36026;45.478;9.224;2023-07-31T06:13:01;6.35;;;3.28;;
50128;SDS011;36026;45.478;9.224;2023-07-31T06:16:04;4.63;;;3.13;;
50128;SDS011;36026;45.478;9.224;2023-07-31T06:19:06;5.07;;;3.47;;
50128;SDS011;36026;45.478;9.224;2023-07-31T06:22:08;8.88;;;3.47;;
50128;SDS011;36026;45.478;9.224;2023-07-31T06:25:09;5.30;;;2.90;;
50128;SDS011;36026;45.478;9.224;2023-07-31T06:28:10;4.13;;;3.08;;
50128;SDS011;36026;45.478;9.224;2023-07-31T06:31:13;4.95;;;3.40;;
50128;SDS011;36026;45.478;9.224;2023-07-31T06:34:15;5.57;;;3.30;;
50128;SDS011;36026;45.478;9.224;2023-07-31T06:37:16;5.25;;;3.35;;
50128;SDS011;36026;45.478;9.224;2023-07-31T06:40:18;6.50;;;3.13;;
50128;SDS011;36026;45.478;9.224;2023-07-31T06:43:19;3.20;;;2.80;;
50128;SDS011;36026;45.478;9.224;2023-07-31T06:46:22;3.65;;;3.15;;
50128;SDS011;36026;45.478;9.224;2023-07-31T06:49:23;3.83;;;3.00;;
50128;SDS011;36026;45.478;9.224;2023-07-31T06:52:25;5.72;;;3.38;;
50128;SDS011;36026;45.478;9.224;2023-07-31T06:55:26;5.60;;;3.20;;
50128;SDS011;36026;45.478;9.224;2023-07-31T06:58:28;6.28;;;2.85;;
50128;SDS011;36026;45.478;9.224;2023-07-31T07:01:31;3.60;;;2.90;;
50128;SDS011;36026;45.478;9.224;2023-07-31T07:04:32;4.80;;;3.45;;
50128;SDS011;36026;45.478;9.224;2023-07-31T07:07:34;4.82;;;3.15;;
50128;SDS011;36026;45.478;9.224;2023-07-31T07:10:35;4.10;;;3.20;;
50128;SDS011;36026;45.478;9.224;2023-07-31T07:13:37;3.22;;;2.30;;
50128;SDS011;36026;45.478;9.224;2023-07-31T07:16:40;3.15;;;1.73;;
50128;SDS011;36026;45.478;9.224;2023-07-31T07:19:42;2.75;;;1.85;;
50128;SDS011;36026;45.478;9.224;2023-07-31T07:22:43;2.70;;;1.90;;
50128;SDS011;36026;45.478;9.224;2023-07-31T07:25:45;3.15;;;1.70;;
50128;SDS011;36026;45.478;9.224;2023-07-31T07:28:46;1.90;;;1.63;;
50128;SDS011;36026;45.478;9.224;2023-07-31T07:31:49;2.38;;;2.10;;
50128;SDS011;36026;45.478;9.224;2023-07-31T07:34:50;3.60;;;2.22;;
50128;SDS011;36026;45.478;9.224;2023-07-31T07:37:52;3.42;;;2.30;;
50128;SDS011;36026;45.478;9.224;2023-07-31T07:40:53;4.55;;;1.60;;
50128;SDS011;36026;45.478;9.224;2023-07-31T07:43:55;1.92;;;1.63;;
50128;SDS011;36026;45.478;9.224;2023-07-31T07:46:58;5.47;;;2.03;;
50128;SDS011;36026;45.478;9.224;2023-07-31T07:49:59;5.47;;;2.03;;
50128;SDS011;36026;45.478;9.224;2023-07-31T07:53:01;3.55;;;1.95;;
50128;SDS011;36026;45.478;9.224;2023-07-31T07:56:02;2.70;;;1.63;;
50128;SDS011;36026;45.478;9.224;2023-07-31T07:59:04;2.72;;;2.22;;
50128;SDS011;36026;45.478;9.224;2023-07-31T08:02:07;2.72;;;2.00;;
50128;SDS011;36026;45.478;9.224;2023-07-31T08:05:08;2.75;;;2.10;;
50128;SDS011;36026;45.478;9.224;2023-07-31T08:11:11;2.25;;;1.73;;
50128;SDS011;36026;45.478;9.224;2023-07-31T08:14:13;2.75;;;1.55;;
50128;SDS011;36026;45.478;9.224;2023-07-31T08:17:16;3.25;;;2.00;;
50128;SDS011;36026;45.478;9.224;2023-07-31T08:20:17;2.50;;;1.98;;
50128;SDS011;36026;45.478;9.224;2023-07-31T08:23:19;2.45;;;1.90;;
50128;SDS011;36026;45.478;9.224;2023-07-31T08:26:20;2.58;;;2.03;;
50128;SDS011;36026;45.478;9.224;2023-07-31T08:29:22;4.18;;;2.22;;
50128;SDS011;36026;45.478;9.224;2023-07-31T08:32:25;2.38;;;2.10;;
50128;SDS011;36026;45.478;9.224;2023-07-31T08:35:26;3.30;;;2.47;;
50128;SDS011;36026;45.478;9.224;2023-07-31T08:38:29;3.53;;;2.10;;
50128;SDS011;36026;45.478;9.224;2023-07-31T08:41:31;2.67;;;2.05;;
50128;SDS011;36026;45.478;9.224;2023-07-31T08:44:32;3.50;;;2.30;;
50128;SDS011;36026;45.478;9.224;2023-07-31T08:47:36;2.90;;;2.15;;
50128;SDS011;36026;45.478;9.224;2023-07-31T08:50:37;3.10;;;2.33;;
50128;SDS011;36026;45.478;9.224;2023-07-31T08:53:39;3.72;;;2.13;;
50128;SDS011;36026;45.478;9.224;2023-07-31T08:56:41;3.33;;;2.30;;
50128;SDS011;36026;45.478;9.224;2023-07-31T09:02:46;2.25;;;1.90;;
50128;SDS011;36026;45.478;9.224;2023-07-31T09:05:49;3.90;;;2.05;;
50128;SDS011;36026;45.478;9.224;2023-07-31T09:08:51;2.07;;;1.77;;
50128;SDS011;36026;45.478;9.224;2023-07-31T09:11:52;2.90;;;2.00;;
50128;SDS011;36026;45.478;9.224;2023-07-31T09:14:54;2.15;;;1.65;;
50128;SDS011;36026;45.478;9.224;2023-07-31T09:18:00;3.05;;;1.70;;
50128;SDS011;36026;45.478;9.224;2023-07-31T09:21:03;4.07;;;2.10;;
50128;SDS011;36026;45.478;9.224;2023-07-31T09:24:04;3.72;;;3.20;;
50128;SDS011;36026;45.478;9.224;2023-07-31T09:27:06;3.15;;;2.22;;
50128;SDS011;36026;45.478;9.224;2023-07-31T09:30:07;3.07;;;2.70;;
50128;SDS011;36026;45.478;9.224;2023-07-31T09:33:10;6.47;;;2.80;;
50128;SDS011;36026;45.478;9.224;2023-07-31T09:36:12;5.53;;;2.50;;
50128;SDS011;36026;45.478;9.224;2023-07-31T09:39:15;2.65;;;2.00;;
50128;SDS011;36026;45.478;9.224;2023-07-31T09:42:24;4.90;;;3.60;;
50128;SDS011;36026;45.478;9.224;2023-07-31T09:45:26;4.45;;;2.35;;
50128;SDS011;36026;45.478;9.224;2023-07-31T09:51:31;3.65;;;3.20;;
50128;SDS011;36026;45.478;9.224;2023-07-31T09:54:38;4.57;;;3.40;;
50128;SDS011;36026;45.478;9.224;2023-07-31T09:57:39;5.28;;;3.53;;
50128;SDS011;36026;45.478;9.224;2023-07-31T10:03:43;6.75;;;4.05;;
50128;SDS011;36026;45.478;9.224;2023-07-31T10:06:47;4.03;;;3.30;;
50128;SDS011;36026;45.478;9.224;2023-07-31T10:09:51;5.22;;;4.60;;
50128;SDS011;36026;45.478;9.224;2023-07-31T10:12:54;6.80;;;4.75;;
50128;SDS011;36026;45.478;9.224;2023-07-31T10:15:58;6.72;;;4.35;;
50128;SDS011;36026;45.478;9.224;2023-07-31T10:18:59;4.80;;;4.28;;
50128;SDS011;36026;45.478;9.224;2023-07-31T10:22:03;5.20;;;3.72;;
50128;SDS011;36026;45.478;9.224;2023-07-31T10:25:05;6.20;;;3.80;;
50128;SDS011;36026;45.478;9.224;2023-07-31T10:28:08;6.25;;;4.40;;
50128;SDS011;36026;45.478;9.224;2023-07-31T10:31:11;6.63;;;4.43;;
50128;SDS011;36026;45.478;9.224;2023-07-31T10:37:22;5.57;;;4.00;;
50128;SDS011;36026;45.478;9.224;2023-07-31T10:40:24;4.32;;;3.92;;
50128;SDS011;36026;45.478;9.224;2023-07-31T10:46:28;5.03;;;4.53;;
50128;SDS011;36026;45.478;9.224;2023-07-31T10:49:29;5.85;;;4.80;;
50128;SDS011;36026;45.478;9.224;2023-07-31T10:52:33;3.80;;;3.40;;
50128;SDS011;36026;45.478;9.224;2023-07-31T10:55:39;6.10;;;4.20;;
50128;SDS011;36026;45.478;9.224;2023-07-31T10:58:41;4.65;;;3.20;;
50128;SDS011;36026;45.478;9.224;2023-07-31T11:01:51;4.47;;;4.07;;
50128;SDS011;36026;45.478;9.224;2023-07-31T11:05:08;8.35;;;3.67;;
50128;SDS011;36026;45.478;9.224;2023-07-31T11:08:11;3.13;;;2.47;;
50128;SDS011;36026;45.478;9.224;2023-07-31T11:11:14;5.05;;;4.00;;
50128;SDS011;36026;45.478;9.224;2023-07-31T11:14:15;5.55;;;3.20;;
50128;SDS011;36026;45.478;9.224;2023-07-31T11:17:17;3.53;;;3.22;;
50128;SDS011;36026;45.478;9.224;2023-07-31T11:20:18;4.75;;;4.00;;
50128;SDS011;36026;45.478;9.224;2023-07-31T11:23:21;4.75;;;3.13;;
50128;SDS011;36026;45.478;9.224;2023-07-31T11:26:23;5.47;;;3.20;;
50128;SDS011;36026;45.478;9.224;2023-07-31T11:29:26;3.90;;;2.85;;
50128;SDS011;36026;45.478;9.224;2023-07-31T11:32:28;4.47;;;2.42;;
50128;SDS011;36026;45.478;9.224;2023-07-31T11:35:30;5.65;;;3.30;;
50128;SDS011;36026;45.478;9.224;2023-07-31T11:38:33;3.88;;;2.45;;
50128;SDS011;36026;45.478;9.224;2023-07-31T11:41:35;5.85;;;3.13;;
50128;SDS011;36026;45.478;9.224;2023-07-31T11:44:40;3.03;;;2.72;;
50128;SDS011;36026;45.478;9.224;2023-07-31T11:47:47;4.57;;;2.93;;
50128;SDS011;36026;45.478;9.224;2023-07-31T11:50:49;4.10;;;2.67;;
50128;SDS011;36026;45.478;9.224;2023-07-31T11:53:54;5.28;;;2.90;;
50128;SDS011;36026;45.478;9.224;2023-07-31T11:56:57;2.97;;;2.67;;
50128;SDS011;36026;45.478;9.224;2023-07-31T12:00:00;3.58;;;2.40;;
50128;SDS011;36026;45.478;9.224;2023-07-31T12:03:02;3.28;;;2.55;;
50128;SDS011;36026;45.478;9.224;2023-07-31T12:06:04;4.07;;;2.40;;
50128;SDS011;36026;45.478;9.224;2023-07-31T12:09:07;4.40;;;2.50;;
50128;SDS011;36026;45.478;9.224;2023-07-31T12:12:08;3.90;;;3.05;;
50128;SDS011;36026;45.478;9.224;2023-07-31T12:15:14;2.75;;;2.38;;
50128;SDS011;36026;45.478;9.224;2023-07-31T12:18:16;2.83;;;2.40;;
50128;SDS011;36026;45.478;9.224;2023-07-31T12:21:20;2.38;;;2.05;;
50128;SDS011;36026;45.478;9.224;2023-07-31T12:24:23;3.08;;;2.72;;
50128;SDS011;36026;45.478;9.224;2023-07-31T12:27:28;3.63;;;2.30;;
50128;SDS011;36026;45.478;9.224;2023-07-31T12:30:34;4.75;;;2.67;;
50128;SDS011;36026;45.478;9.224;2023-07-31T12:33:36;3.72;;;2.35;;
50128;SDS011;36026;45.478;9.224;2023-07-31T12:36:38;4.35;;;2.67;;
50128;SDS011;36026;45.478;9.224;2023-07-31T12:39:41;3.80;;;2.85;;
50128;SDS011;36026;45.478;9.224;2023-07-31T12:42:42;3.95;;;2.85;;
50128;SDS011;36026;45.478;9.224;2023-07-31T12:45:44;3.10;;;2.40;;
50128;SDS011;36026;45.478;9.224;2023-07-31T12:48:45;4.85;;;2.80;;
50128;SDS011;36026;45.478;9.224;2023-07-31T12:51:47;3.22;;;2.30;;
50128;SDS011;36026;45.478;9.224;2023-07-31T12:54:49;4.85;;;2.95;;
50128;SDS011;36026;45.478;9.224;2023-07-31T12:57:51;4.10;;;3.00;;
50128;SDS011;36026;45.478;9.224;2023-07-31T13:00:52;3.75;;;2.60;;
50128;SDS011;36026;45.478;9.224;2023-07-31T13:03:54;3.80;;;2.45;;
50128;SDS011;36026;45.478;9.224;2023-07-31T13:06:55;3.08;;;2.47;;
50128;SDS011;36026;45.478;9.224;2023-07-31T13:09:58;5.35;;;2.78;;
50128;SDS011;36026;45.478;9.224;2023-07-31T13:12:59;3.03;;;2.72;;
50128;SDS011;36026;45.478;9.224;2023-07-31T13:16:01;5.57;;;2.97;;
50128;SDS011;36026;45.478;9.224;2023-07-31T13:19:02;4.35;;;2.80;;
50128;SDS011;36026;45.478;9.224;2023-07-31T13:22:04;4.65;;;2.50;;
50128;SDS011;36026;45.478;9.224;2023-07-31T13:25:07;4.65;;;2.97;;
50128;SDS011;36026;45.478;9.224;2023-07-31T13:28:09;3.90;;;2.65;;
50128;SDS011;36026;45.478;9.224;2023-07-31T13:31:10;5.45;;;2.60;;
50128;SDS011;36026;45.478;9.224;2023-07-31T13:34:12;3.70;;;2.60;;
50128;SDS011;36026;45.478;9.224;2023-07-31T13:37:14;3.20;;;2.90;;
50128;SDS011;36026;45.478;9.224;2023-07-31T13:40:17;3.67;;;2.72;;
50128;SDS011;36026;45.478;9.224;2023-07-31T13:43:18;2.45;;;2.22;;
50128;SDS011;36026;45.478;9.224;2023-07-31T13:46:19;6.40;;;2.40;;
50128;SDS011;36026;45.478;9.224;2023-07-31T13:49:21;2.45;;;2.00;;
50128;SDS011;36026;45.478;9.224;2023-07-31T13:52:22;4.32;;;2.42;;
50128;SDS011;36026;45.478;9.224;2023-07-31T13:55:25;4.13;;;2.63;;
50128;SDS011;36026;45.478;9.224;2023-07-31T13:58:26;2.25;;;2.08;;
50128;SDS011;36026;45.478;9.224;2023-07-31T14:01:28;2.47;;;2.22;;
50128;SDS011;36026;45.478;9.224;2023-07-31T14:04:29;2.65;;;2.22;;
50128;SDS011;36026;45.478;9.224;2023-07-31T14:07:31;3.88;;;2.35;;
50128;SDS011;36026;45.478;9.224;2023-07-31T14:10:34;2.67;;;2.38;;
50128;SDS011;36026;45.478;9.224;2023-07-31T14:13:36;3.70;;;2.30;;
50128;SDS011;36026;45.478;9.224;2023-07-31T14:19:38;3.40;;;2.30;;
50128;SDS011;36026;45.478;9.224;2023-07-31T14:22:40;2.47;;;2.10;;
50128;SDS011;36026;45.478;9.224;2023-07-31T14:25:43;4.40;;;2.35;;
50128;SDS011;36026;45.478;9.224;2023-07-31T14:28:44;2.40;;;2.20;;
50128;SDS011;36026;45.478;9.224;2023-07-31T14:31:46;3.30;;;2.60;;
50128;SDS011;36026;45.478;9.224;2023-07-31T14:34:47;2.20;;;1.95;;
50128;SDS011;36026;45.478;9.224;2023-07-31T14:37:48;2.53;;;2.30;;
50128;SDS011;36026;45.478;9.224;2023-07-31T14:40:51;4.65;;;2.70;;
50128;SDS011;36026;45.478;9.224;2023-07-31T14:43:53;4.65;;;2.35;;
50128;SDS011;36026;45.478;9.224;2023-07-31T14:46:54;3.47;;;2.42;;
50128;SDS011;36026;45.478;9.224;2023-07-31T14:49:56;3.80;;;2.45;;
50128;SDS011;36026;45.478;9.224;2023-07-31T14:52:57;3.30;;;2.40;;
50128;SDS011;36026;45.478;9.224;2023-07-31T14:56:01;2.20;;;1.98;;
50128;SDS011;36026;45.478;9.224;2023-07-31T14:59:02;2.42;;;2.13;;
50128;SDS011;36026;45.478;9.224;2023-07-31T15:02:04;6.22;;;2.10;;
50128;SDS011;36026;45.478;9.224;2023-07-31T15:05:06;3.50;;;2.10;;
50128;SDS011;36026;45.478;9.224;2023-07-31T15:08:08;2.10;;;1.90;;
50128;SDS011;36026;45.478;9.224;2023-07-31T15:11:11;2.25;;;1.80;;
50128;SDS011;36026;45.478;9.224;2023-07-31T15:14:13;3.08;;;2.17;;
50128;SDS011;36026;45.478;9.224;2023-07-31T15:17:14;3.13;;;2.28;;
50128;SDS011;36026;45.478;9.224;2023-07-31T15:20:16;3.00;;;1.80;;
50128;SDS011;36026;45.478;9.224;2023-07-31T15:23:17;2.33;;;2.13;;
50128;SDS011;36026;45.478;9.224;2023-07-31T15:26:20;4.97;;;2.50;;
50128;SDS011;36026;45.478;9.224;2023-07-31T15:29:21;3.47;;;2.20;;
50128;SDS011;36026;45.478;9.224;2023-07-31T15:32:23;3.03;;;2.38;;
50128;SDS011;36026;45.478;9.224;2023-07-31T15:35:24;2.83;;;2.25;;
50128;SDS011;36026;45.478;9.224;2023-07-31T15:38:26;3.67;;;2.50;;
50128;SDS011;36026;45.478;9.224;2023-07-31T15:41:29;2.63;;;2.17;;
50128;SDS011;36026;45.478;9.224;2023-07-31T15:44:30;4.32;;;2.40;;
50128;SDS011;36026;45.478;9.224;2023-07-31T15:47:32;3.70;;;2.03;;
50128;SDS011;36026;45.478;9.224;2023-07-31T15:50:33;6.27;;;2.87;;
50128;SDS011;36026;45.478;9.224;2023-07-31T15:53:35;4.13;;;2.23;;
50128;SDS011;36026;45.478;9.224;2023-07-31T15:56:38;2.97;;;2.33;;
50128;SDS011;36026;45.478;9.224;2023-07-31T15:59:39;2.85;;;2.33;;
50128;SDS011;36026;45.478;9.224;2023-07-31T16:02:41;3.07;;;2.40;;
50128;SDS011;36026;45.478;9.224;2023-07-31T16:05:42;3.10;;;2.25;;
50128;SDS011;36026;45.478;9.224;2023-07-31T16:08:44;2.70;;;2.17;;
50128;SDS011;36026;45.478;9.224;2023-07-31T16:11:47;2.60;;;2.40;;
50128;SDS011;36026;45.478;9.224;2023-07-31T16:14:49;4.30;;;2.72;;
50128;SDS011;36026;45.478;9.224;2023-07-31T16:17:50;5.13;;;2.67;;
50128;SDS011;36026;45.478;9.224;2023-07-31T16:20:52;3.55;;;2.40;;
50128;SDS011;36026;45.478;9.224;2023-07-31T16:23:54;3.30;;;2.38;;
50128;SDS011;36026;45.478;9.224;2023-07-31T16:26:57;3.50;;;2.40;;
50128;SDS011;36026;45.478;9.224;2023-07-31T16:29:59;6.03;;;2.40;;
50128;SDS011;36026;45.478;9.224;2023-07-31T16:33:00;2.70;;;2.50;;
50128;SDS011;36026;45.478;9.224;2023-07-31T16:36:02;2.90;;;2.55;;
50128;SDS011;36026;45.478;9.224;2023-07-31T16:39:03;3.50;;;2.58;;
50128;SDS011;36026;45.478;9.224;2023-07-31T16:42:06;2.88;;;2.42;;
50128;SDS011;36026;45.478;9.224;2023-07-31T16:45:08;5.20;;;2.30;;
50128;SDS011;36026;45.478;9.224;2023-07-31T16:48:09;3.38;;;2.78;;
50128;SDS011;36026;45.478;9.224;2023-07-31T16:51:11;5.97;;;2.85;;
50128;SDS011;36026;45.478;9.224;2023-07-31T16:54:14;5.60;;;2.70;;
50128;SDS011;36026;45.478;9.224;2023-07-31T16:57:17;2.80;;;2.55;;
50128;SDS011;36026;45.478;9.224;2023-07-31T17:00:18;3.97;;;2.53;;
50128;SDS011;36026;45.478;9.224;2023-07-31T17:03:20;4.68;;;2.58;;
50128;SDS011;36026;45.478;9.224;2023-07-31T17:06:21;2.88;;;2.10;;
50128;SDS011;36026;45.478;9.224;2023-07-31T17:09:22;4.50;;;2.30;;
50128;SDS011;36026;45.478;9.224;2023-07-31T17:12:25;4.68;;;2.50;;
50128;SDS011;36026;45.478;9.224;2023-07-31T17:15:27;3.10;;;2.50;;
50128;SDS011;36026;45.478;9.224;2023-07-31T17:18:29;3.10;;;2.70;;
50128;SDS011;36026;45.478;9.224;2023-07-31T17:21:30;4.40;;;2.40;;
50128;SDS011;36026;45.478;9.224;2023-07-31T17:24:32;3.22;;;2.90;;
50128;SDS011;36026;45.478;9.224;2023-07-31T17:27:34;2.97;;;2.13;;
50128;SDS011;36026;45.478;9.224;2023-07-31T17:33:37;2.97;;;2.65;;
50128;SDS011;36026;45.478;9.224;2023-07-31T17:36:38;3.00;;;2.20;;
50128;SDS011;36026;45.478;9.224;2023-07-31T17:39:40;2.83;;;2.38;;
50128;SDS011;36026;45.478;9.224;2023-07-31T17:42:43;3.40;;;2.47;;
50128;SDS011;36026;45.478;9.224;2023-07-31T17:45:44;4.22;;;2.25;;
50128;SDS011;36026;45.478;9.224;2023-07-31T17:48:46;5.07;;;3.00;;
50128;SDS011;36026;45.478;9.224;2023-07-31T17:51:48;2.88;;;2.58;;
50128;SDS011;36026;45.478;9.224;2023-07-31T17:54:50;3.00;;;2.50;;
50128;SDS011;36026;45.478;9.224;2023-07-31T17:57:55;3.88;;;2.95;;
50128;SDS011;36026;45.478;9.224;2023-07-31T18:03:58;3.15;;;2.33;;
50128;SDS011;36026;45.478;9.224;2023-07-31T18:06:59;3.60;;;2.80;;
50128;SDS011;36026;45.478;9.224;2023-07-31T18:10:01;7.35;;;2.80;;
50128;SDS011;36026;45.478;9.224;2023-07-31T18:13:04;5.45;;;3.17;;
50128;SDS011;36026;45.478;9.224;2023-07-31T18:19:07;6.20;;;2.72;;
50128;SDS011;36026;45.478;9.224;2023-07-31T18:22:08;4.75;;;2.90;;
50128;SDS011;36026;45.478;9.224;2023-07-31T18:25:09;5.72;;;2.70;;
50128;SDS011;36026;45.478;9.224;2023-07-31T18:28:14;4.78;;;3.20;;
50128;SDS011;36026;45.478;9.224;2023-07-31T18:34:17;3.55;;;2.47;;
50128;SDS011;36026;45.478;9.224;2023-07-31T18:37:18;4.45;;;2.58;;
50128;SDS011;36026;45.478;9.224;2023-07-31T18:40:19;3.15;;;2.47;;
50128;SDS011;36026;45.478;9.224;2023-07-31T18:43:22;3.38;;;2.50;;
50128;SDS011;36026;45.478;9.224;2023-07-31T18:49:25;4.45;;;2.35;;
50128;SDS011;36026;45.478;9.224;2023-07-31T18:52:26;3.92;;;2.25;;